Time;durP1;ratioP1;P1;durP2;ratioP2;P2;SDS_P1;SDS_P2;PMS_P1;PMS_P2;Temp;Humidity;BMP_temperature;BMP_pressure;BME280_temperature;BME280_humidity;BME280_pressure;Samples;Min_cycle;Max_cycle;Signal;HPM_P1;HPM_P2
2023/09/12 00:01:08;;;;;;;186.98;58.08;;;;;;;;;;5014600;28;20054;-71
2023/09/12 00:03:34;;;;;;;185.65;56.30;;;;;;;;;;4997864;28;20100;-72
2023/09/12 00:06:01;;;;;;;198.68;59.00;;;;;;;;;;5013628;28;20104;-72
2023/09/12 00:08:28;;;;;;;190.30;59.08;;;;;;;;;;5015316;28;20038;-72
2023/09/12 00:11:03;;;;;;;198.85;59.42;;;;;;;;;;5014191;28;20099;-72
2023/09/12 00:13:30;;;;;;;202.70;61.33;;;;;;;;;;5014873;28;20057;-73
2023/09/12 00:15:56;;;;;;;195.10;58.50;;;;;;;;;;5013069;28;20549;-71
2023/09/12 00:18:22;;;;;;;199.60;59.70;;;;;;;;;;5013263;28;20046;-72
2023/09/12 00:20:49;;;;;;;208.07;60.85;;;;;;;;;;5012903;28;20053;-71
2023/09/12 00:23:15;;;;;;;194.60;57.83;;;;;;;;;;5013041;28;20081;-73
2023/09/12 00:25:41;;;;;;;198.67;55.87;;;;;;;;;;5014080;28;20108;-72
2023/09/12 00:28:07;;;;;;;195.55;60.05;;;;;;;;;;5012949;28;20296;-71
2023/09/12 00:30:33;;;;;;;194.38;59.15;;;;;;;;;;5013508;28;20050;-71
2023/09/12 00:32:59;;;;;;;199.73;57.85;;;;;;;;;;4996556;28;20065;-72
2023/09/12 00:35:25;;;;;;;199.80;59.75;;;;;;;;;;4996960;28;20057;-70
2023/09/12 00:37:51;;;;;;;198.68;57.10;;;;;;;;;;5013161;28;20054;-71
2023/09/12 00:40:17;;;;;;;200.98;60.05;;;;;;;;;;4979968;28;20068;-70
2023/09/12 00:42:44;;;;;;;210.13;59.67;;;;;;;;;;5014298;28;20371;-71
2023/09/12 00:45:10;;;;;;;206.80;59.90;;;;;;;;;;5013655;28;20052;-72
2023/09/12 00:47:36;;;;;;;209.27;60.42;;;;;;;;;;5014180;28;20046;-70
2023/09/12 00:50:03;;;;;;;213.88;62.65;;;;;;;;;;5012922;28;20048;-70
2023/09/12 00:52:29;;;;;;;204.63;60.97;;;;;;;;;;5012604;28;20046;-70
2023/09/12 00:54:55;;;;;;;;;;;;;;;;;;5013574;28;20049;-69
2023/09/12 00:57:22;;;;;;;194.77;58.65;;;;;;;;;;5015649;28;19926;-69
2023/09/12 00:59:48;;;;;;;209.68;60.63;;;;;;;;;;5012947;28;20413;-70
2023/09/12 01:02:21;;;;;;;215.00;61.88;;;;;;;;;;4996725;28;20053;-71
2023/09/12 01:04:47;;;;;;;227.80;65.82;;;;;;;;;;4996739;28;20065;-71
2023/09/12 01:07:13;;;;;;;238.95;66.20;;;;;;;;;;5013151;28;20046;-72
2023/09/12 01:09:40;;;;;;;207.40;62.00;;;;;;;;;;5012570;28;20053;-70
2023/09/12 01:12:06;;;;;;;215.98;61.78;;;;;;;;;;5013633;28;20053;-71
2023/09/12 01:14:32;;;;;;;243.10;66.10;;;;;;;;;;5012702;28;20136;-71
2023/09/12 01:16:59;;;;;;;272.80;69.35;;;;;;;;;;5013375;28;20406;-71
2023/09/12 01:19:25;;;;;;;;;;;;;;;;;;5014436;28;20129;-71
2023/09/12 01:22:18;;;;;;;236.48;64.25;;;;;;;;;;5024646;28;19925;-72
2023/09/12 01:24:44;;;;;;;280.38;67.95;;;;;;;;;;5029019;28;20525;-71
2023/09/12 01:27:21;;;;;;;283.05;68.03;;;;;;;;;;5015520;28;20449;-73
2023/09/12 01:29:49;;;;;;;269.17;67.45;;;;;;;;;;5014467;28;20050;-71
2023/09/12 01:32:15;;;;;;;277.90;65.72;;;;;;;;;;5013018;28;20045;-71
2023/09/12 01:34:41;;;;;;;255.50;65.43;;;;;;;;;;5012350;28;20045;-71
2023/09/12 01:37:07;;;;;;;298.05;67.35;;;;;;;;;;4995810;28;20046;-71
2023/09/12 01:39:33;;;;;;;237.82;64.22;;;;;;;;;;5013884;28;20069;-72
2023/09/12 01:41:59;;;;;;;218.85;60.22;;;;;;;;;;5013277;28;20081;-73
2023/09/12 01:44:28;;;;;;;230.13;62.28;;;;;;;;;;5012625;28;20137;-72
2023/09/12 01:46:55;;;;;;;277.52;66.40;;;;;;;;;;5011868;28;20061;-72
2023/09/12 01:49:23;;;;;;;310.77;69.35;;;;;;;;;;5012728;28;20050;-72
2023/09/12 01:51:49;;;;;;;262.13;65.45;;;;;;;;;;5012302;28;20052;-72
2023/09/12 01:54:15;;;;;;;250.90;65.65;;;;;;;;;;5012956;28;20073;-73
2023/09/12 01:56:42;;;;;;;303.42;67.75;;;;;;;;;;5012520;28;20046;-72
2023/09/12 01:59:08;;;;;;;;;;;;;;;;;;5012813;28;20050;-73
2023/09/12 02:01:34;;;;;;;250.60;64.13;;;;;;;;;;5012699;28;19928;-72
2023/09/12 02:04:00;;;;;;;273.02;68.20;;;;;;;;;;5013174;28;20417;-72
2023/09/12 02:06:26;;;;;;;245.13;66.03;;;;;;;;;;4979211;28;20482;-73
2023/09/12 02:08:53;;;;;;;320.23;70.18;;;;;;;;;;5013005;28;20161;-72
2023/09/12 02:11:19;;;;;;;1002.30;92.30;;;;;;;;;;5011526;28;20421;-70
2023/09/12 02:13:45;;;;;;;276.25;68.70;;;;;;;;;;4995290;28;20054;-73
2023/09/12 02:16:11;;;;;;;500.50;76.38;;;;;;;;;;5012228;28;20115;-73
2023/09/12 02:18:37;;;;;;;301.47;67.60;;;;;;;;;;5013128;28;20395;-73
2023/09/12 02:21:03;;;;;;;886.78;82.63;;;;;;;;;;5011923;28;20301;-72
2023/09/12 02:23:29;;;;;;;381.80;69.15;;;;;;;;;;5011906;28;20435;-72
2023/09/12 02:25:56;;;;;;;401.48;66.30;;;;;;;;;;5013366;28;20116;-73
2023/09/12 02:28:22;;;;;;;295.02;65.22;;;;;;;;;;5011371;28;20093;-72
2023/09/12 02:30:48;;;;;;;249.13;66.43;;;;;;;;;;5020566;28;20512;-72
2023/09/12 02:33:14;;;;;;;245.55;64.40;;;;;;;;;;5027992;28;20296;-72
2023/09/12 02:35:40;;;;;;;274.08;68.13;;;;;;;;;;5015042;28;20053;-72
2023/09/12 02:38:08;;;;;;;1010.95;88.10;;;;;;;;;;5012087;28;20080;-72
2023/09/12 02:40:34;;;;;;;588.78;76.18;;;;;;;;;;5011576;28;20038;-73
2023/09/12 02:43:00;;;;;;;370.70;68.20;;;;;;;;;;5011931;28;20507;-72
2023/09/12 02:45:26;;;;;;;284.50;62.78;;;;;;;;;;5012048;28;20045;-73
2023/09/12 02:47:52;;;;;;;1089.47;86.55;;;;;;;;;;5012439;28;20402;-73
2023/09/12 02:50:18;;;;;;;360.38;65.75;;;;;;;;;;5011515;28;20046;-73
2023/09/12 02:52:44;;;;;;;465.02;66.28;;;;;;;;;;5012593;28;20053;-73
2023/09/12 02:55:11;;;;;;;651.67;76.47;;;;;;;;;;5012587;28;20397;-73
2023/09/12 02:57:37;;;;;;;682.80;76.63;;;;;;;;;;5012258;28;20046;-73
2023/09/12 03:00:06;;;;;;;774.78;79.18;;;;;;;;;;5012313;28;20046;-75
2023/09/12 03:02:32;;;;;;;363.77;67.75;;;;;;;;;;5011198;28;20054;-74
2023/09/12 03:04:58;;;;;;;590.30;72.90;;;;;;;;;;5012552;28;20054;-74
2023/09/12 03:07:24;;;;;;;772.65;77.13;;;;;;;;;;5012290;28;20053;-73
2023/09/12 03:09:51;;;;;;;669.13;73.70;;;;;;;;;;5011663;28;20572;-74
2023/09/12 03:12:17;;;;;;;636.35;73.80;;;;;;;;;;5011295;28;20092;-73
2023/09/12 03:14:43;;;;;;;380.83;64.93;;;;;;;;;;5015162;28;20050;-72
2023/09/12 03:17:09;;;;;;;555.55;69.18;;;;;;;;;;5016580;28;20057;-73
2023/09/12 03:19:36;;;;;;;497.85;65.25;;;;;;;;;;5014437;28;20050;-74
2023/09/12 03:22:02;;;;;;;402.42;65.28;;;;;;;;;;5014793;28;20054;-74
2023/09/12 03:24:28;;;;;;;500.42;67.70;;;;;;;;;;5015318;28;20050;-74
2023/09/12 03:26:54;;;;;;;421.08;61.40;;;;;;;;;;5014656;28;20060;-74
2023/09/12 03:29:20;;;;;;;319.58;61.85;;;;;;;;;;4997945;28;20506;-73
2023/09/12 03:31:47;;;;;;;342.88;61.72;;;;;;;;;;5015837;28;20060;-74
2023/09/12 03:34:13;;;;;;;356.05;59.70;;;;;;;;;;4998709;28;20096;-73
2023/09/12 03:36:39;;;;;;;679.45;71.80;;;;;;;;;;4998063;28;20089;-73
2023/09/12 03:39:08;;;;;;;248.25;56.83;;;;;;;;;;5002711;28;20054;-73
2023/09/12 03:41:34;;;;;;;305.05;55.60;;;;;;;;;;5032401;28;20073;-72
2023/09/12 03:44:00;;;;;;;639.97;66.97;;;;;;;;;;5019260;28;20046;-74
2023/09/12 03:46:26;;;;;;;260.90;54.08;;;;;;;;;;5016090;28;20057;-73
2023/09/12 03:48:52;;;;;;;318.83;53.85;;;;;;;;;;5015846;28;20061;-74
2023/09/12 03:51:18;;;;;;;305.02;57.00;;;;;;;;;;5015558;28;20089;-75
2023/09/12 03:53:47;;;;;;;260.02;53.03;;;;;;;;;;5014378;28;20045;-75
2023/09/12 03:56:14;;;;;;;331.38;56.58;;;;;;;;;;5015153;28;20049;-74
2023/09/12 03:58:40;;;;;;;236.13;53.88;;;;;;;;;;5014476;28;20423;-74
2023/09/12 04:01:07;;;;;;;212.00;53.83;;;;;;;;;;5015280;28;20057;-74
2023/09/12 04:03:33;;;;;;;238.35;56.10;;;;;;;;;;5014681;28;20050;-74
2023/09/12 04:05:59;;;;;;;230.77;54.28;;;;;;;;;;5015235;28;20132;-74
2023/09/12 04:08:25;;;;;;;214.70;53.65;;;;;;;;;;5013677;28;20049;-74
2023/09/12 04:10:51;;;;;;;210.60;54.28;;;;;;;;;;4997379;28;20455;-75
2023/09/12 04:13:17;;;;;;;217.65;52.38;;;;;;;;;;4997533;28;20056;-75
2023/09/12 04:15:43;;;;;;;245.82;55.17;;;;;;;;;;5014661;28;20060;-74
2023/09/12 04:18:09;;;;;;;252.82;52.85;;;;;;;;;;5013668;28;20537;-74
2023/09/12 04:20:35;;;;;;;601.80;65.53;;;;;;;;;;5013419;28;20402;-74
2023/09/12 04:23:04;;;;;;;300.00;56.53;;;;;;;;;;5014895;28;20137;-74
2023/09/12 04:25:31;;;;;;;266.25;51.85;;;;;;;;;;5013107;28;20041;-73
2023/09/12 04:27:58;;;;;;;245.27;52.13;;;;;;;;;;5014951;28;20089;-73
2023/09/12 04:30:24;;;;;;;;;;;;;;;;;;5015175;28;20042;-73
2023/09/12 04:32:50;;;;;;;270.45;52.00;;;;;;;;;;5014653;28;19928;-74
2023/09/12 04:35:17;;;;;;;215.20;50.63;;;;;;;;;;5013736;28;20097;-73
2023/09/12 04:37:43;;;;;;;329.80;53.97;;;;;;;;;;5013056;28;20288;-74
2023/09/12 04:40:10;;;;;;;496.83;59.63;;;;;;;;;;5014127;28;20173;-73
2023/09/12 04:42:36;;;;;;;620.25;63.90;;;;;;;;;;5012989;28;20482;-73
2023/09/12 04:45:02;;;;;;;540.23;60.80;;;;;;;;;;5014666;28;20041;-73
2023/09/12 04:47:28;;;;;;;437.73;58.87;;;;;;;;;;5016369;28;20285;-73
2023/09/12 04:49:54;;;;;;;460.13;59.83;;;;;;;;;;5034368;28;20280;-74
2023/09/12 04:52:20;;;;;;;374.20;57.30;;;;;;;;;;5020088;28;20099;-74
2023/09/12 04:54:46;;;;;;;250.50;52.47;;;;;;;;;;4996411;28;20046;-72
2023/09/12 04:57:12;;;;;;;287.33;55.47;;;;;;;;;;5013350;28;20045;-73
2023/09/12 04:59:38;;;;;;;245.05;55.42;;;;;;;;;;4996432;28;20065;-73
2023/09/12 05:02:04;;;;;;;495.40;59.75;;;;;;;;;;5012742;28;20049;-75
2023/09/12 05:04:31;;;;;;;505.27;61.70;;;;;;;;;;5012646;28;20042;-72
2023/09/12 05:06:58;;;;;;;261.33;54.63;;;;;;;;;;5012864;28;20056;-73
2023/09/12 05:09:24;;;;;;;257.95;56.28;;;;;;;;;;4996534;28;20128;-74
2023/09/12 05:11:50;;;;;;;227.52;55.42;;;;;;;;;;5013813;28;20050;-76
2023/09/12 05:14:16;;;;;;;249.25;54.75;;;;;;;;;;5013802;28;20506;-75
2023/09/12 05:16:42;;;;;;;235.75;57.97;;;;;;;;;;5013522;28;20137;-73
2023/09/12 05:19:08;;;;;;;239.40;59.55;;;;;;;;;;5013574;28;20486;-74
2023/09/12 05:21:34;;;;;;;221.20;55.97;;;;;;;;;;5012054;28;20528;-74
2023/09/12 05:24:00;;;;;;;231.50;59.03;;;;;;;;;;5013760;28;20453;-73
2023/09/12 05:26:26;;;;;;;207.98;54.70;;;;;;;;;;5012689;28;20046;-74
2023/09/12 05:28:52;;;;;;;370.27;62.70;;;;;;;;;;5013226;28;20111;-74
2023/09/12 05:31:18;;;;;;;206.43;57.88;;;;;;;;;;5013481;28;20296;-74
2023/09/12 05:33:45;;;;;;;228.57;57.15;;;;;;;;;;5013099;28;20038;-73
2023/09/12 05:36:11;;;;;;;223.02;55.50;;;;;;;;;;5012262;28;20045;-74
2023/09/12 05:38:37;;;;;;;236.00;58.30;;;;;;;;;;5012793;28;20046;-73
2023/09/12 05:41:03;;;;;;;279.17;59.38;;;;;;;;;;5013287;28;20041;-74
2023/09/12 05:43:29;;;;;;;330.60;61.17;;;;;;;;;;5012619;28;20512;-74
2023/09/12 05:45:57;;;;;;;268.30;59.65;;;;;;;;;;5013829;28;20054;-74
2023/09/12 05:48:23;;;;;;;406.48;64.78;;;;;;;;;;4996552;28;20058;-73
2023/09/12 05:50:49;;;;;;;235.07;59.97;;;;;;;;;;5011692;28;20049;-74
2023/09/12 05:53:16;;;;;;;214.50;56.40;;;;;;;;;;5013486;28;20089;-75
2023/09/12 05:55:42;;;;;;;237.57;57.72;;;;;;;;;;5014317;28;20072;-73
2023/09/12 05:58:08;;;;;;;243.05;58.70;;;;;;;;;;5027380;28;20100;-73
2023/09/12 06:00:34;;;;;;;231.18;59.22;;;;;;;;;;5017419;28;20099;-75
2023/09/12 06:03:00;;;;;;;224.02;58.40;;;;;;;;;;5013051;28;20046;-74
2023/09/12 06:05:26;;;;;;;254.85;62.50;;;;;;;;;;4996236;28;20057;-74
2023/09/12 06:07:52;;;;;;;235.13;61.03;;;;;;;;;;5011658;28;20409;-75
2023/09/12 06:10:18;;;;;;;220.48;59.35;;;;;;;;;;5013157;28;20042;-74
2023/09/12 06:12:44;;;;;;;255.82;61.00;;;;;;;;;;4995398;28;20364;-74
2023/09/12 06:15:11;;;;;;;253.15;61.03;;;;;;;;;;5012250;28;20041;-75
2023/09/12 06:17:37;;;;;;;253.20;60.35;;;;;;;;;;5011633;28;20076;-75
2023/09/12 06:20:06;;;;;;;244.60;60.55;;;;;;;;;;5011442;28;20070;-74
2023/09/12 06:22:32;;;;;;;227.90;58.13;;;;;;;;;;5011752;28;20046;-74
2023/09/12 06:24:58;;;;;;;224.60;58.13;;;;;;;;;;5011922;28;20455;-76
2023/09/12 06:27:24;;;;;;;243.93;62.05;;;;;;;;;;5011699;28;20072;-76
2023/09/12 06:29:50;;;;;;;239.70;61.20;;;;;;;;;;5011176;28;20046;-76
2023/09/12 06:32:17;;;;;;;227.77;58.55;;;;;;;;;;5012729;28;20046;-76
2023/09/12 06:34:43;;;;;;;240.77;60.20;;;;;;;;;;5011085;28;20057;-76
2023/09/12 06:37:11;;;;;;;245.00;62.47;;;;;;;;;;5012664;28;20053;-75
2023/09/12 06:39:37;;;;;;;244.95;61.75;;;;;;;;;;5011650;28;20077;-76
2023/09/12 06:42:03;;;;;;;303.35;63.67;;;;;;;;;;5012455;28;20112;-76
2023/09/12 06:44:29;;;;;;;248.23;60.47;;;;;;;;;;5011670;28;20077;-76
2023/09/12 06:46:55;;;;;;;237.55;60.08;;;;;;;;;;5012659;28;20041;-75
2023/09/12 06:49:21;;;;;;;222.15;57.15;;;;;;;;;;5015040;28;20556;-76
2023/09/12 06:51:47;;;;;;;224.98;59.33;;;;;;;;;;5015303;28;20050;-77
2023/09/12 06:54:14;;;;;;;222.23;57.47;;;;;;;;;;5015666;28;20050;-76
2023/09/12 06:56:42;;;;;;;204.32;55.40;;;;;;;;;;4999401;28;20427;-76
2023/09/12 06:59:09;;;;;;;198.15;53.35;;;;;;;;;;5016302;28;20065;-75
2023/09/12 07:01:35;;;;;;;182.30;52.20;;;;;;;;;;5017550;28;20064;-77
2023/09/12 07:04:01;;;;;;;196.77;55.40;;;;;;;;;;5018063;28;20054;-78
2023/09/12 07:06:27;;;;;;;180.10;51.88;;;;;;;;;;5026288;28;20468;-77
2023/09/12 07:08:53;;;;;;;196.93;54.80;;;;;;;;;;5020616;28;20080;-76
2023/09/12 07:11:19;;;;;;;183.68;54.30;;;;;;;;;;5017882;28;20137;-77
2023/09/12 07:13:46;;;;;;;186.18;53.72;;;;;;;;;;5017270;28;20046;-72
2023/09/12 07:16:12;;;;;;;191.77;57.08;;;;;;;;;;5017850;28;20525;-77
2023/09/12 07:18:39;;;;;;;201.30;55.88;;;;;;;;;;5015571;28;20132;-77
2023/09/12 07:21:06;;;;;;;201.13;55.80;;;;;;;;;;5015293;28;20046;-76
2023/09/12 07:23:32;;;;;;;188.98;53.70;;;;;;;;;;5016710;28;20049;-77
2023/09/12 07:25:59;;;;;;;181.43;55.00;;;;;;;;;;5015208;28;20041;-77
2023/09/12 07:28:25;;;;;;;194.82;56.50;;;;;;;;;;5016473;28;20449;-77
2023/09/12 07:30:52;;;;;;;200.95;56.17;;;;;;;;;;5015861;28;20085;-77
2023/09/12 07:33:18;;;;;;;195.50;57.50;;;;;;;;;;4998704;28;20054;-77
2023/09/12 07:35:44;;;;;;;192.32;54.45;;;;;;;;;;5016216;28;20092;-78
2023/09/12 07:38:10;;;;;;;191.20;52.83;;;;;;;;;;5014859;28;20049;-79
2023/09/12 07:40:36;;;;;;;197.15;56.03;;;;;;;;;;5016105;28;20133;-75
2023/09/12 07:43:02;;;;;;;186.95;55.03;;;;;;;;;;5015526;28;20085;-78
2023/09/12 07:45:31;;;;;;;168.27;51.65;;;;;;;;;;5014871;28;20402;-76
2023/09/12 07:47:57;;;;;;;181.07;53.05;;;;;;;;;;4998157;28;20079;-77
2023/09/12 07:50:23;;;;;;;166.80;50.63;;;;;;;;;;4983090;28;20490;-77
2023/09/12 07:52:49;;;;;;;173.00;50.95;;;;;;;;;;5015796;28;20081;-78
2023/09/12 07:55:15;;;;;;;168.85;50.90;;;;;;;;;;5015124;28;20505;-78
2023/09/12 07:57:41;;;;;;;165.35;50.00;;;;;;;;;;5014721;28;20072;-77
2023/09/12 08:00:09;;;;;;;167.50;50.78;;;;;;;;;;5013489;28;20050;-77
2023/09/12 08:02:35;;;;;;;166.30;51.03;;;;;;;;;;5014283;28;20108;-77
2023/09/12 08:05:01;;;;;;;160.05;45.95;;;;;;;;;;4997787;28;20085;-73
2023/09/12 08:07:27;;;;;;;167.18;52.90;;;;;;;;;;4998402;28;20572;-79
2023/09/12 08:09:55;;;;;;;166.25;51.25;;;;;;;;;;4998123;28;20141;-76
2023/09/12 08:12:22;;;;;;;171.70;51.33;;;;;;;;;;5004370;28;20059;-78
2023/09/12 08:14:48;;;;;;;;;;;;;;;;;;5034504;28;20081;-74
2023/09/12 08:17:14;;;;;;;170.05;52.22;;;;;;;;;;5015272;28;20120;-78
2023/09/12 08:19:40;;;;;;;176.95;52.08;;;;;;;;;;4998334;28;20104;-78
2023/09/12 08:22:07;;;;;;;173.80;53.50;;;;;;;;;;5013833;28;20069;-77
2023/09/12 08:24:33;;;;;;;;;;;;;;;;;;4998456;28;20049;-78
2023/09/12 08:26:59;;;;;;;171.48;51.63;;;;;;;;;;5014434;28;19922;-79
2023/09/12 08:29:26;;;;;;;165.98;51.63;;;;;;;;;;4999942;28;20045;-78
2023/09/12 08:31:53;;;;;;;168.20;53.47;;;;;;;;;;5016445;28;20045;-78
2023/09/12 08:34:19;;;;;;;160.50;49.75;;;;;;;;;;4997961;28;20409;-80
2023/09/12 08:36:45;;;;;;;161.73;49.90;;;;;;;;;;5015221;28;20053;-76
2023/09/12 08:39:13;;;;;;;155.20;49.28;;;;;;;;;;4998337;28;20049;-77
2023/09/12 08:41:39;;;;;;;159.20;52.63;;;;;;;;;;5013954;28;20096;-78
2023/09/12 08:44:06;;;;;;;154.40;51.17;;;;;;;;;;5013538;28;20433;-78
2023/09/12 08:46:32;;;;;;;163.70;51.22;;;;;;;;;;5014889;28;20442;-79
2023/09/12 08:48:59;;;;;;;161.98;53.15;;;;;;;;;;5014782;28;20049;-75
2023/09/12 08:51:25;;;;;;;162.93;52.00;;;;;;;;;;5015495;28;20058;-79
2023/09/12 08:53:51;;;;;;;168.00;53.65;;;;;;;;;;5014696;28;20065;-79
2023/09/12 08:56:18;;;;;;;163.73;52.78;;;;;;;;;;4996766;28;20050;-78
2023/09/12 08:58:44;;;;;;;;;;;;;;;;;;5014688;28;20061;-79
2023/09/12 09:01:13;;;;;;;160.70;48.72;;;;;;;;;;5012891;28;19921;-78
2023/09/12 09:03:40;;;;;;;153.52;50.58;;;;;;;;;;5014714;28;20056;-80
2023/09/12 09:06:07;;;;;;;145.85;48.83;;;;;;;;;;4996703;28;20079;-78
2023/09/12 09:08:33;;;;;;;;;;;;;;;;;;5014861;28;20080;-77
2023/09/12 09:11:02;;;;;;;150.27;49.78;;;;;;;;;;4996669;28;19921;-78
2023/09/12 09:13:28;;;;;;;150.38;51.38;;;;;;;;;;5014448;28;20046;-78
2023/09/12 09:16:13;;;;;;;143.05;50.67;;;;;;;;;;5014972;28;20046;-79
2023/09/12 09:18:55;;;;;;;145.25;49.47;;;;;;;;;;5013826;28;20042;-77
2023/09/12 09:21:25;;;;;;;146.20;50.83;;;;;;;;;;5016861;28;20705;-77
2023/09/12 09:23:56;;;;;;;151.23;52.05;;;;;;;;;;5021224;28;20138;-77
2023/09/12 09:26:24;;;;;;;142.10;50.20;;;;;;;;;;5017791;28;20386;-80
2023/09/12 09:29:03;;;;;;;144.02;49.80;;;;;;;;;;5013039;28;20348;-78
2023/09/12 09:31:29;;;;;;;148.77;51.10;;;;;;;;;;5012837;28;20050;-79
2023/09/12 09:33:56;;;;;;;149.55;52.35;;;;;;;;;;5013775;28;20046;-79
2023/09/12 09:36:22;;;;;;;135.73;48.78;;;;;;;;;;5013050;28;20073;-78
2023/09/12 09:38:48;;;;;;;144.55;51.75;;;;;;;;;;5013661;28;20100;-79
2023/09/12 09:41:14;;;;;;;;;;;;;;;;;;5012498;28;20084;-77
2023/09/12 09:43:40;;;;;;;139.93;50.22;;;;;;;;;;5013783;28;20144;-79
2023/09/12 09:46:06;;;;;;;140.10;50.53;;;;;;;;;;5012163;28;20108;-77
2023/09/12 09:48:33;;;;;;;141.73;51.88;;;;;;;;;;5013513;28;20058;-79
2023/09/12 09:51:02;;;;;;;138.68;51.47;;;;;;;;;;5013403;28;20081;-79
2023/09/12 09:53:29;;;;;;;148.13;52.53;;;;;;;;;;5013459;28;20133;-78
2023/09/12 09:56:08;;;;;;;147.93;52.55;;;;;;;;;;4996367;28;20065;-77
2023/09/12 09:58:34;;;;;;;132.15;50.42;;;;;;;;;;5013286;28;20135;-75
2023/09/12 10:01:03;;;;;;;137.00;52.85;;;;;;;;;;5012147;28;20042;-77
2023/09/12 10:03:31;;;;;;;138.60;49.17;;;;;;;;;;5012680;28;20108;-76
2023/09/12 10:05:58;;;;;;;140.23;52.25;;;;;;;;;;5013227;28;20050;-78
2023/09/12 10:08:24;;;;;;;;;;;;;;;;;;5012129;28;20049;-77
2023/09/12 10:10:51;;;;;;;127.18;49.60;;;;;;;;;;5012013;28;20392;-76
2023/09/12 10:13:17;;;;;;;132.50;51.22;;;;;;;;;;5012956;28;20045;-76
2023/09/12 10:15:43;;;;;;;125.57;49.05;;;;;;;;;;5012080;28;20402;-76
2023/09/12 10:18:14;;;;;;;135.40;51.10;;;;;;;;;;5012615;28;20046;-75
2023/09/12 10:20:53;;;;;;;130.82;48.38;;;;;;;;;;5012075;28;20060;-75
2023/09/12 10:23:30;;;;;;;124.05;49.08;;;;;;;;;;5013120;28;20458;-75
2023/09/12 10:25:57;;;;;;;124.65;47.03;;;;;;;;;;5025712;28;20105;-76
2023/09/12 10:28:24;;;;;;;122.25;48.90;;;;;;;;;;5033213;28;20046;-77
2023/09/12 10:30:51;;;;;;;121.78;47.90;;;;;;;;;;5017656;28;20111;-75
2023/09/12 10:33:18;;;;;;;113.40;46.95;;;;;;;;;;5016975;28;20050;-75
2023/09/12 10:35:46;;;;;;;116.43;46.70;;;22.70;99.90;;;;;;4983594;28;20061;-75
2023/09/12 10:38:15;;;;;;;118.60;48.33;;;22.80;99.90;;;;;;5016772;28;20053;-72
2023/09/12 10:40:42;;;;;;;122.70;51.03;;;22.80;99.90;;;;;;5016709;28;20133;-74
2023/09/12 10:43:10;;;;;;;118.82;48.53;;;23.00;99.90;;;;;;5015387;28;20502;-75
2023/09/12 10:45:36;;;;;;;102.93;44.45;;;23.10;99.90;;;;;;4999189;28;20042;-74
2023/09/12 10:48:03;;;;;;;102.28;43.30;;;;;;;;;;5015499;28;20494;-75
2023/09/12 10:50:29;;;;;;;;;;;;;;;;;;4999353;28;20049;-74
2023/09/12 10:52:55;;;;;;;97.60;39.75;;;;;;;;;;5016679;28;19976;-75
2023/09/12 10:55:21;;;;;;;94.25;39.95;;;;;;;;;;5016163;28;20053;-73
2023/09/12 10:58:04;;;;;;;90.57;39.05;;;;;;;;;;4998724;28;20056;-73
2023/09/12 11:00:32;;;;;;;95.38;40.55;;;;;;;;;;5016040;28;20064;-74
2023/09/12 11:03:00;;;;;;;93.35;41.72;;;;;;;;;;5015480;28;20076;-73
2023/09/12 11:05:26;;;;;;;84.25;38.40;;;;;;;;;;5016026;28;20061;-74
2023/09/12 11:07:56;;;;;;;79.32;37.38;;;;;;;;;;5016315;28;20061;-73
2023/09/12 11:10:22;;;;;;;72.80;33.05;;;;;;;;;;5014340;28;20042;-73
2023/09/12 11:12:52;;;;;;;78.13;32.72;;;;;;;;;;5016298;28;20057;-74
2023/09/12 11:15:20;;;;;;;71.55;30.52;;;;;;;;;;4998387;28;20472;-74
2023/09/12 11:17:47;;;;;;;77.25;33.92;;;;;;;;;;5015457;28;20042;-74
2023/09/12 11:20:14;;;;;;;77.00;33.30;;;;;;;;;;5014836;28;20129;-72
2023/09/12 11:22:49;;;;;;;67.72;30.50;;;;;;;;;;5015877;28;20054;-73
2023/09/12 11:25:15;;;;;;;73.90;34.13;;;;;;;;;;5015550;28;20041;-73
2023/09/12 11:27:46;;;;;;;78.45;34.92;;;;;;;;;;5015740;28;20092;-73
2023/09/12 11:30:12;;;;;;;82.47;37.10;;;;;;;;;;5016662;28;20089;-74
2023/09/12 11:32:38;;;;;;;84.82;39.45;;;;;;;;;;5025207;28;20409;-73
2023/09/12 11:35:05;;;;;;;84.70;37.08;;;;;;;;;;5032067;28;20046;-74
2023/09/12 11:37:33;;;;;;;70.35;30.48;;;;;;;;;;5014881;28;20398;-72
2023/09/12 11:39:59;;;;;;;84.50;37.28;;;;;;;;;;5016194;28;20042;-72
2023/09/12 11:42:25;;;;;;;81.18;35.22;;;;;;;;;;5015305;28;20393;-73
2023/09/12 11:44:52;;;;;;;72.57;34.20;;;;;;;;;;5014417;28;20525;-73
2023/09/12 11:47:19;;;;;;;77.38;35.40;;;;;;;;;;4998138;28;20072;-73
2023/09/12 11:49:46;;;;;;;83.47;38.15;;;;;;;;;;5015455;28;20123;-73
2023/09/12 11:52:13;;;;;;;88.28;41.08;;;;;;;;;;5015408;28;20045;-74
2023/09/12 11:54:41;;;;;;;82.03;39.10;;;;;;;;;;5013996;28;20057;-74
2023/09/12 11:57:08;;;;;;;74.60;34.53;;;;;;;;;;5014626;28;20105;-74
2023/09/12 11:59:37;;;;;;;74.72;33.75;;;;;;;;;;5014436;28;20049;-73
2023/09/12 12:02:06;;;;;;;72.25;33.42;;;;;;;;;;4998015;28;20192;-73
2023/09/12 12:04:34;;;;;;;68.60;31.00;;;;;;;;;;5014668;28;20041;-73
2023/09/12 12:07:01;;;;;;;57.35;27.48;;;;;;;;;;5015488;28;20125;-72
2023/09/12 12:09:27;;;;;;;57.03;25.08;;;;;;;;;;4997686;28;20133;-73
2023/09/12 12:11:53;;;;;;;58.47;26.98;;;;;;;;;;4998372;28;20406;-72
2023/09/12 12:14:20;;;;;;;59.53;28.13;;;;;;;;;;5014035;28;20049;-73
2023/09/12 12:16:47;;;;;;;67.68;30.08;;;;;;;;;;5014430;28;20050;-73
2023/09/12 12:19:14;;;;;;;60.05;27.48;;;;;;;;;;5014649;28;20058;-72
2023/09/12 12:21:41;;;;;;;63.38;29.15;;;;;;;;;;5013547;28;20065;-73
2023/09/12 12:24:25;;;;;;;61.10;30.70;;;;;;;;;;5014703;28;20053;-73
2023/09/12 12:26:53;;;;;;;58.25;27.83;;;;;;;;;;5013498;28;20045;-73
2023/09/12 12:29:19;;;;;;;54.38;26.08;;;;;;;;;;5013494;28;20050;-73
2023/09/12 12:31:45;;;;;;;50.53;24.98;;;;;;;;;;4997435;28;20076;-73
2023/09/12 12:34:11;;;;;;;52.10;23.33;;;;;;;;;;5014366;28;20050;-73
2023/09/12 12:36:43;;;;;;;53.83;25.60;;;;;;;;;;5014214;28;20398;-73
2023/09/12 12:39:11;;;;;;;54.60;25.15;;;;;;;;;;5018314;28;20105;-74
2023/09/12 12:41:38;;;;;;;46.55;22.27;;;;;;;;;;5001555;28;20176;-71
2023/09/12 12:44:05;;;;;;;48.70;24.85;;;;;;;;;;5016193;28;20049;-74
2023/09/12 12:46:31;;;;;;;52.55;25.83;;;;;;;;;;5012557;28;20053;-74
2023/09/12 12:48:57;;;;;;;61.15;30.60;;;;;;;;;;5014498;28;20061;-75
2023/09/12 12:51:24;;;;;;;61.88;28.77;;;;;;;;;;5014505;28;20049;-74
2023/09/12 12:53:54;;;;;;;65.78;32.88;;;;;;;;;;5014010;28;20054;-74
2023/09/12 12:56:22;;;;;;;62.35;32.63;;;;;;;;;;5014282;28;20054;-73
2023/09/12 12:58:52;;;;;;;64.03;31.00;;;;;;;;;;5013702;28;20062;-73
2023/09/12 13:01:19;;;;;;;67.15;30.60;;;;;;;;;;4996694;28;20046;-72
2023/09/12 13:03:45;;;;;;;;;;;;;;;;;;5013387;28;20054;-73
2023/09/12 13:06:14;;;;;;;48.85;22.00;;;;;;;;;;4996562;28;20424;-73
2023/09/12 13:08:43;;;;;;;52.20;24.00;;;;;;;;;;5013778;28;20055;-73
2023/09/12 13:11:10;;;;;;;64.00;28.10;;;;;;;;;;5013935;28;20042;-73
2023/09/12 13:13:37;;;;;;;53.30;25.05;;;;;;;;;;5013906;28;20394;-74
2023/09/12 13:16:04;;;;;;;34.13;16.30;;;;;;;;;;5013875;28;20088;-73
2023/09/12 13:18:31;;;;;;;31.00;16.02;;;;;;;;;;5012984;28;20442;-74
2023/09/12 13:20:57;;;;;;;40.05;19.77;;;;;;;;;;5013481;28;20128;-74
2023/09/12 13:23:24;;;;;;;43.17;21.13;;;;;;;;;;5013765;28;20046;-74
2023/09/12 13:25:51;;;;;;;46.63;21.88;;;;;;;;;;5012966;28;20050;-74
2023/09/12 13:28:17;;;;;;;39.85;18.73;;;;;;;;;;5013898;28;20052;-73
2023/09/12 13:30:44;;;;;;;38.95;19.35;;;;;;;;;;5012380;28;20129;-73
2023/09/12 13:33:11;;;;;;;38.97;16.75;;;;;;;;;;5013575;28;20054;-73
2023/09/12 13:35:37;;;;;;;36.03;16.70;;;;;;;;;;5012003;28;20049;-75
2023/09/12 13:38:09;;;;;;;28.52;13.73;;;;;;;;;;5013597;28;20081;-73
2023/09/12 13:40:45;;;;;;;30.95;13.63;;;;;;;;;;5013504;28;20046;-74
2023/09/12 13:43:11;;;;;;;44.05;19.67;;;;;;;;;;5013618;28;20058;-74
2023/09/12 13:45:37;;;;;;;46.88;22.63;;;;;;;;;;5013556;28;20053;-73
2023/09/12 13:48:04;;;;;;;42.72;20.30;;;;;;;;;;5014126;28;20050;-73
2023/09/12 13:50:31;;;;;;;36.28;17.00;;;;;;;;;;5023538;28;20041;-72
2023/09/12 13:52:59;;;;;;;34.33;15.45;;;;;;;;;;5012550;28;20969;-73
2023/09/12 13:55:25;;;;;;;33.10;14.32;;;;;;;;;;5012812;28;20112;-72
2023/09/12 13:57:51;;;;;;;31.88;13.52;;;;;;;;;;5012675;28;20061;-73
2023/09/12 14:00:18;;;;;;;38.70;13.57;;;;;;;;;;5012278;28;20436;-72
2023/09/12 14:02:44;;;;;;;;;;;;;;;;;;5012444;28;20446;-73
2023/09/12 14:05:11;;;;;;;30.38;12.88;;;;;;;;;;5012281;28;20262;-73
2023/09/12 14:07:38;;;;;;;;;;;;;;;;;;4996226;28;20053;-73
2023/09/12 14:10:04;;;;;;;27.98;13.32;;;;;;;;;;5013228;28;19921;-73